sensor_id;sensor_type;location;lat;lon;timestamp;temperature;humidity
66102;HTU21D;52883;51.094;5.880;2023-02-02T00:01:57;7.46;118.99
66102;HTU21D;52883;51.094;5.880;2023-02-02T00:04:30;7.47;118.99
66102;HTU21D;52883;51.094;5.880;2023-02-02T00:06:56;7.47;118.99
66102;HTU21D;52883;51.094;5.880;2023-02-02T00:09:22;7.46;118.99
66102;HTU21D;52883;51.094;5.880;2023-02-02T00:11:49;7.44;118.99
66102;HTU21D;52883;51.094;5.880;2023-02-02T00:14:16;7.44;118.99
66102;HTU21D;52883;51.094;5.880;2023-02-02T00:16:49;7.43;118.99
66102;HTU21D;52883;51.094;5.880;2023-02-02T00:19:18;7.42;118.99
66102;HTU21D;52883;51.094;5.880;2023-02-02T00:21:44;7.40;118.99
66102;HTU21D;52883;51.094;5.880;2023-02-02T00:24:12;7.40;118.99
66102;HTU21D;52883;51.094;5.880;2023-02-02T00:26:40;7.38;118.99
66102;HTU21D;52883;51.094;5.880;2023-02-02T00:29:10;7.41;118.99
66102;HTU21D;52883;51.094;5.880;2023-02-02T00:31:37;7.41;118.99
66102;HTU21D;52883;51.094;5.880;2023-02-02T00:34:03;7.45;118.99
66102;HTU21D;52883;51.094;5.880;2023-02-02T00:36:29;7.43;118.99
66102;HTU21D;52883;51.094;5.880;2023-02-02T00:38:54;7.46;118.99
66102;HTU21D;52883;51.094;5.880;2023-02-02T00:41:20;7.47;118.99
66102;HTU21D;52883;51.094;5.880;2023-02-02T00:43:45;7.50;118.99
66102;HTU21D;52883;51.094;5.880;2023-02-02T00:46:31;7.49;118.99
66102;HTU21D;52883;51.094;5.880;2023-02-02T00:48:57;7.50;118.99
66102;HTU21D;52883;51.094;5.880;2023-02-02T00:51:22;7.52;118.99
66102;HTU21D;52883;51.094;5.880;2023-02-02T00:53:48;7.54;118.99
66102;HTU21D;52883;51.094;5.880;2023-02-02T00:56:13;7.55;118.99
66102;HTU21D;52883;51.094;5.880;2023-02-02T00:58:39;7.56;118.99
66102;HTU21D;52883;51.094;5.880;2023-02-02T01:01:16;7.59;118.99
66102;HTU21D;52883;51.094;5.880;2023-02-02T01:03:43;7.60;118.99
66102;HTU21D;52883;51.094;5.880;2023-02-02T01:06:09;7.60;118.99
66102;HTU21D;52883;51.094;5.880;2023-02-02T01:08:35;7.59;118.99
66102;HTU21D;52883;51.094;5.880;2023-02-02T01:11:01;7.62;118.99
66102;HTU21D;52883;51.094;5.880;2023-02-02T01:13:27;7.62;118.99
66102;HTU21D;52883;51.094;5.880;2023-02-02T01:15:57;7.63;118.99
66102;HTU21D;52883;51.094;5.880;2023-02-02T01:18:24;7.67;118.99
66102;HTU21D;52883;51.094;5.880;2023-02-02T01:21:07;7.70;118.99
66102;HTU21D;52883;51.094;5.880;2023-02-02T01:23:35;7.70;118.99
66102;HTU21D;52883;51.094;5.880;2023-02-02T01:26:04;7.70;118.99
66102;HTU21D;52883;51.094;5.880;2023-02-02T01:28:31;7.72;118.99
66102;HTU21D;52883;51.094;5.880;2023-02-02T01:30:57;7.73;118.99
66102;HTU21D;52883;51.094;5.880;2023-02-02T01:33:23;7.74;118.99
66102;HTU21D;52883;51.094;5.880;2023-02-02T01:35:52;7.76;118.99
66102;HTU21D;52883;51.094;5.880;2023-02-02T01:38:19;7.77;118.99
66102;HTU21D;52883;51.094;5.880;2023-02-02T01:40:47;7.78;118.99
66102;HTU21D;52883;51.094;5.880;2023-02-02T01:43:30;7.76;118.99
66102;HTU21D;52883;51.094;5.880;2023-02-02T01:46:22;7.77;118.99
66102;HTU21D;52883;51.094;5.880;2023-02-02T01:48:55;7.77;118.99
66102;HTU21D;52883;51.094;5.880;2023-02-02T01:51:29;7.78;118.99
66102;HTU21D;52883;51.094;5.880;2023-02-02T01:53:58;7.79;118.99
66102;HTU21D;52883;51.094;5.880;2023-02-02T01:56:33;7.81;118.99
66102;HTU21D;52883;51.094;5.880;2023-02-02T01:59:02;7.79;118.99
66102;HTU21D;52883;51.094;5.880;2023-02-02T02:01:27;7.76;118.99
66102;HTU21D;52883;51.094;5.880;2023-02-02T02:03:55;7.76;118.99
66102;HTU21D;52883;51.094;5.880;2023-02-02T02:06:21;7.74;118.99
66102;HTU21D;52883;51.094;5.880;2023-02-02T02:08:56;7.72;118.99
66102;HTU21D;52883;51.094;5.880;2023-02-02T02:11:23;7.73;118.99
66102;HTU21D;52883;51.094;5.880;2023-02-02T02:13:53;7.72;118.99
66102;HTU21D;52883;51.094;5.880;2023-02-02T02:16:45;7.71;118.99
66102;HTU21D;52883;51.094;5.880;2023-02-02T02:33:38;7.90;118.99
66102;HTU21D;52883;51.094;5.880;2023-02-02T02:36:24;7.92;118.99
66102;HTU21D;52883;51.094;5.880;2023-02-02T02:39:05;7.94;118.99
66102;HTU21D;52883;51.094;5.880;2023-02-02T02:41:42;7.96;118.99
66102;HTU21D;52883;51.094;5.880;2023-02-02T02:44:13;7.99;118.99
66102;HTU21D;52883;51.094;5.880;2023-02-02T02:46:41;8.02;118.99
66102;HTU21D;52883;51.094;5.880;2023-02-02T02:49:09;8.03;118.99
66102;HTU21D;52883;51.094;5.880;2023-02-02T02:54:26;8.06;118.99
66102;HTU21D;52883;51.094;5.880;2023-02-02T03:09:04;8.13;118.99
66102;HTU21D;52883;51.094;5.880;2023-02-02T03:11:29;8.13;118.99
66102;HTU21D;52883;51.094;5.880;2023-02-02T03:13:55;8.14;118.99
66102;HTU21D;52883;51.094;5.880;2023-02-02T03:16:21;8.14;118.99
66102;HTU21D;52883;51.094;5.880;2023-02-02T03:18:47;8.13;118.99
66102;HTU21D;52883;51.094;5.880;2023-02-02T03:21:12;8.15;118.99
66102;HTU21D;52883;51.094;5.880;2023-02-02T03:23:38;8.13;118.99
66102;HTU21D;52883;51.094;5.880;2023-02-02T03:26:04;8.13;118.99
66102;HTU21D;52883;51.094;5.880;2023-02-02T03:28:31;8.16;118.99
66102;HTU21D;52883;51.094;5.880;2023-02-02T03:31:00;8.16;118.99
66102;HTU21D;52883;51.094;5.880;2023-02-02T03:33:27;8.16;118.99
66102;HTU21D;52883;51.094;5.880;2023-02-02T03:35:54;8.17;118.99
66102;HTU21D;52883;51.094;5.880;2023-02-02T03:38:19;8.17;118.99
66102;HTU21D;52883;51.094;5.880;2023-02-02T03:40:45;8.15;118.99
66102;HTU21D;52883;51.094;5.880;2023-02-02T03:43:10;8.14;118.99
66102;HTU21D;52883;51.094;5.880;2023-02-02T03:45:36;8.15;118.99
66102;HTU21D;52883;51.094;5.880;2023-02-02T03:48:05;8.12;118.99
66102;HTU21D;52883;51.094;5.880;2023-02-02T03:50:31;8.11;118.99
66102;HTU21D;52883;51.094;5.880;2023-02-02T03:52:57;8.07;118.99
66102;HTU21D;52883;51.094;5.880;2023-02-02T03:55:23;8.05;118.99
66102;HTU21D;52883;51.094;5.880;2023-02-02T03:57:48;8.05;118.99
66102;HTU21D;52883;51.094;5.880;2023-02-02T04:00:14;8.04;118.99
66102;HTU21D;52883;51.094;5.880;2023-02-02T04:02:40;8.04;118.99
66102;HTU21D;52883;51.094;5.880;2023-02-02T04:05:06;8.02;118.99
66102;HTU21D;52883;51.094;5.880;2023-02-02T04:07:32;8.00;118.99
66102;HTU21D;52883;51.094;5.880;2023-02-02T04:09:57;7.97;118.99
66102;HTU21D;52883;51.094;5.880;2023-02-02T04:12:23;7.94;118.99
66102;HTU21D;52883;51.094;5.880;2023-02-02T04:14:48;7.93;118.99
66102;HTU21D;52883;51.094;5.880;2023-02-02T04:17:14;7.92;118.99
66102;HTU21D;52883;51.094;5.880;2023-02-02T04:19:40;7.92;118.99
66102;HTU21D;52883;51.094;5.880;2023-02-02T04:22:05;7.91;118.99
66102;HTU21D;52883;51.094;5.880;2023-02-02T04:24:31;7.92;118.99
66102;HTU21D;52883;51.094;5.880;2023-02-02T04:26:56;7.94;118.99
66102;HTU21D;52883;51.094;5.880;2023-02-02T04:29:22;7.97;118.99
66102;HTU21D;52883;51.094;5.880;2023-02-02T04:31:48;7.96;118.99
66102;HTU21D;52883;51.094;5.880;2023-02-02T04:34:13;7.90;118.99
66102;HTU21D;52883;51.094;5.880;2023-02-02T04:36:39;7.85;118.99
66102;HTU21D;52883;51.094;5.880;2023-02-02T04:39:04;7.85;118.99
66102;HTU21D;52883;51.094;5.880;2023-02-02T04:41:30;7.85;118.99
66102;HTU21D;52883;51.094;5.880;2023-02-02T04:43:56;7.86;118.99
66102;HTU21D;52883;51.094;5.880;2023-02-02T04:46:21;7.86;118.99
66102;HTU21D;52883;51.094;5.880;2023-02-02T04:48:48;7.83;118.99
66102;HTU21D;52883;51.094;5.880;2023-02-02T04:51:14;7.81;118.99
66102;HTU21D;52883;51.094;5.880;2023-02-02T04:53:41;7.79;118.99
66102;HTU21D;52883;51.094;5.880;2023-02-02T04:56:12;7.74;118.99
66102;HTU21D;52883;51.094;5.880;2023-02-02T04:58:37;7.71;118.99
66102;HTU21D;52883;51.094;5.880;2023-02-02T05:01:17;7.70;118.99
66102;HTU21D;52883;51.094;5.880;2023-02-02T05:03:43;7.67;118.99
66102;HTU21D;52883;51.094;5.880;2023-02-02T05:06:09;7.63;118.99
66102;HTU21D;52883;51.094;5.880;2023-02-02T05:08:35;7.61;118.99
66102;HTU21D;52883;51.094;5.880;2023-02-02T05:11:12;7.56;118.99
66102;HTU21D;52883;51.094;5.880;2023-02-02T05:13:38;7.49;118.99
66102;HTU21D;52883;51.094;5.880;2023-02-02T05:16:04;7.47;118.99
66102;HTU21D;52883;51.094;5.880;2023-02-02T05:18:30;7.45;118.99
66102;HTU21D;52883;51.094;5.880;2023-02-02T05:21:00;7.38;118.99
66102;HTU21D;52883;51.094;5.880;2023-02-02T05:23:27;7.34;118.99
66102;HTU21D;52883;51.094;5.880;2023-02-02T05:25:53;7.32;118.99
66102;HTU21D;52883;51.094;5.880;2023-02-02T05:28:22;7.31;118.99
66102;HTU21D;52883;51.094;5.880;2023-02-02T05:30:48;7.29;118.99
66102;HTU21D;52883;51.094;5.880;2023-02-02T05:33:14;7.28;118.99
66102;HTU21D;52883;51.094;5.880;2023-02-02T05:35:40;7.25;118.99
66102;HTU21D;52883;51.094;5.880;2023-02-02T05:38:06;7.25;118.99
66102;HTU21D;52883;51.094;5.880;2023-02-02T05:40:31;7.24;118.99
66102;HTU21D;52883;51.094;5.880;2023-02-02T05:42:57;7.20;118.99
66102;HTU21D;52883;51.094;5.880;2023-02-02T05:45:23;7.20;118.99
66102;HTU21D;52883;51.094;5.880;2023-02-02T05:47:49;7.23;118.99
66102;HTU21D;52883;51.094;5.880;2023-02-02T05:50:17;7.22;118.99
66102;HTU21D;52883;51.094;5.880;2023-02-02T05:52:44;7.19;118.99
66102;HTU21D;52883;51.094;5.880;2023-02-02T05:55:10;7.23;118.99
66102;HTU21D;52883;51.094;5.880;2023-02-02T05:57:36;7.19;118.99
66102;HTU21D;52883;51.094;5.880;2023-02-02T06:00:03;7.20;118.99
66102;HTU21D;52883;51.094;5.880;2023-02-02T06:02:37;7.22;118.99
66102;HTU21D;52883;51.094;5.880;2023-02-02T06:05:03;7.24;118.99
66102;HTU21D;52883;51.094;5.880;2023-02-02T06:07:29;7.25;118.99
66102;HTU21D;52883;51.094;5.880;2023-02-02T06:09:54;7.26;118.99
66102;HTU21D;52883;51.094;5.880;2023-02-02T06:12:20;7.28;118.99
66102;HTU21D;52883;51.094;5.880;2023-02-02T06:14:46;7.29;118.99
66102;HTU21D;52883;51.094;5.880;2023-02-02T06:17:11;7.30;118.99
66102;HTU21D;52883;51.094;5.880;2023-02-02T06:19:37;7.28;118.99
66102;HTU21D;52883;51.094;5.880;2023-02-02T06:22:03;7.29;118.99
66102;HTU21D;52883;51.094;5.880;2023-02-02T06:24:28;7.28;118.99
66102;HTU21D;52883;51.094;5.880;2023-02-02T06:26:54;7.28;118.99
66102;HTU21D;52883;51.094;5.880;2023-02-02T06:29:19;7.28;118.99
66102;HTU21D;52883;51.094;5.880;2023-02-02T06:31:45;7.28;118.99
66102;HTU21D;52883;51.094;5.880;2023-02-02T06:34:11;7.26;118.99
66102;HTU21D;52883;51.094;5.880;2023-02-02T06:36:40;7.24;118.99
66102;HTU21D;52883;51.094;5.880;2023-02-02T06:39:06;7.26;118.99
66102;HTU21D;52883;51.094;5.880;2023-02-02T06:41:33;7.26;118.99
66102;HTU21D;52883;51.094;5.880;2023-02-02T06:43:59;7.26;118.99
66102;HTU21D;52883;51.094;5.880;2023-02-02T06:46:25;7.26;118.99
66102;HTU21D;52883;51.094;5.880;2023-02-02T06:48:51;7.24;118.99
66102;HTU21D;52883;51.094;5.880;2023-02-02T06:51:17;7.26;118.99
66102;HTU21D;52883;51.094;5.880;2023-02-02T06:53:42;7.25;118.99
66102;HTU21D;52883;51.094;5.880;2023-02-02T06:56:11;7.28;118.99
66102;HTU21D;52883;51.094;5.880;2023-02-02T06:58:37;7.25;118.99
66102;HTU21D;52883;51.094;5.880;2023-02-02T07:01:09;7.26;118.99
66102;HTU21D;52883;51.094;5.880;2023-02-02T07:03:34;7.27;118.99
66102;HTU21D;52883;51.094;5.880;2023-02-02T07:06:29;7.27;118.99
66102;HTU21D;52883;51.094;5.880;2023-02-02T07:08:56;7.28;118.99
66102;HTU21D;52883;51.094;5.880;2023-02-02T07:11:22;7.29;118.99
66102;HTU21D;52883;51.094;5.880;2023-02-02T07:13:49;7.28;118.99
66102;HTU21D;52883;51.094;5.880;2023-02-02T07:16:16;7.28;118.99
66102;HTU21D;52883;51.094;5.880;2023-02-02T07:18:42;7.26;118.99
66102;HTU21D;52883;51.094;5.880;2023-02-02T07:21:15;7.28;118.99
66102;HTU21D;52883;51.094;5.880;2023-02-02T07:23:41;7.28;118.99
66102;HTU21D;52883;51.094;5.880;2023-02-02T07:26:08;7.30;118.99
66102;HTU21D;52883;51.094;5.880;2023-02-02T07:28:34;7.32;118.99
66102;HTU21D;52883;51.094;5.880;2023-02-02T07:31:10;7.34;118.99
66102;HTU21D;52883;51.094;5.880;2023-02-02T07:33:36;7.37;118.99
66102;HTU21D;52883;51.094;5.880;2023-02-02T07:36:05;7.38;118.99
66102;HTU21D;52883;51.094;5.880;2023-02-02T07:38:30;7.40;118.99
66102;HTU21D;52883;51.094;5.880;2023-02-02T07:40:59;7.41;118.99
66102;HTU21D;52883;51.094;5.880;2023-02-02T07:43:25;7.44;118.99
66102;HTU21D;52883;51.094;5.880;2023-02-02T07:45:50;7.44;118.99
66102;HTU21D;52883;51.094;5.880;2023-02-02T07:48:16;7.47;118.99
66102;HTU21D;52883;51.094;5.880;2023-02-02T07:50:42;7.47;118.99
66102;HTU21D;52883;51.094;5.880;2023-02-02T07:53:07;7.46;118.99
66102;HTU21D;52883;51.094;5.880;2023-02-02T07:55:33;7.48;118.99
66102;HTU21D;52883;51.094;5.880;2023-02-02T07:57:58;7.48;118.99
66102;HTU21D;52883;51.094;5.880;2023-02-02T08:00:25;7.53;118.99
66102;HTU21D;52883;51.094;5.880;2023-02-02T08:02:50;7.56;118.99
66102;HTU21D;52883;51.094;5.880;2023-02-02T08:05:16;7.56;118.99
66102;HTU21D;52883;51.094;5.880;2023-02-02T08:07:42;7.55;118.99
66102;HTU21D;52883;51.094;5.880;2023-02-02T08:10:09;7.58;118.99
66102;HTU21D;52883;51.094;5.880;2023-02-02T08:12:35;7.61;118.99
66102;HTU21D;52883;51.094;5.880;2023-02-02T08:15:00;7.64;118.99
66102;HTU21D;52883;51.094;5.880;2023-02-02T08:17:26;7.65;118.99
66102;HTU21D;52883;51.094;5.880;2023-02-02T08:19:52;7.71;118.99
66102;HTU21D;52883;51.094;5.880;2023-02-02T08:22:17;7.76;118.99
66102;HTU21D;52883;51.094;5.880;2023-02-02T08:24:43;7.82;118.99
66102;HTU21D;52883;51.094;5.880;2023-02-02T08:27:09;7.89;118.99
66102;HTU21D;52883;51.094;5.880;2023-02-02T08:29:36;7.94;118.99
66102;HTU21D;52883;51.094;5.880;2023-02-02T08:32:04;8.03;118.99
66102;HTU21D;52883;51.094;5.880;2023-02-02T08:34:29;8.06;118.99
66102;HTU21D;52883;51.094;5.880;2023-02-02T08:36:55;8.12;118.99
66102;HTU21D;52883;51.094;5.880;2023-02-02T08:39:21;8.15;118.99
66102;HTU21D;52883;51.094;5.880;2023-02-02T08:41:47;8.17;118.99
66102;HTU21D;52883;51.094;5.880;2023-02-02T08:44:14;8.21;118.99
66102;HTU21D;52883;51.094;5.880;2023-02-02T08:46:41;8.28;118.99
66102;HTU21D;52883;51.094;5.880;2023-02-02T08:49:10;8.37;118.99
66102;HTU21D;52883;51.094;5.880;2023-02-02T08:51:36;8.41;118.99
66102;HTU21D;52883;51.094;5.880;2023-02-02T08:54:03;8.34;118.99
66102;HTU21D;52883;51.094;5.880;2023-02-02T08:56:28;8.30;118.99
66102;HTU21D;52883;51.094;5.880;2023-02-02T08:58:56;8.27;118.99
66102;HTU21D;52883;51.094;5.880;2023-02-02T09:01:29;8.23;118.99
66102;HTU21D;52883;51.094;5.880;2023-02-02T09:04:00;8.23;118.99
66102;HTU21D;52883;51.094;5.880;2023-02-02T09:06:37;8.26;118.99
66102;HTU21D;52883;51.094;5.880;2023-02-02T09:09:05;8.32;118.99
66102;HTU21D;52883;51.094;5.880;2023-02-02T09:11:32;8.42;118.99
66102;HTU21D;52883;51.094;5.880;2023-02-02T09:13:59;8.51;118.99
66102;HTU21D;52883;51.094;5.880;2023-02-02T09:16:27;8.49;118.99
66102;HTU21D;52883;51.094;5.880;2023-02-02T09:18:54;8.48;118.99
66102;HTU21D;52883;51.094;5.880;2023-02-02T09:21:21;8.46;118.99
66102;HTU21D;52883;51.094;5.880;2023-02-02T09:23:48;8.45;118.99
66102;HTU21D;52883;51.094;5.880;2023-02-02T09:26:25;8.44;118.99
66102;HTU21D;52883;51.094;5.880;2023-02-02T09:28:56;8.45;118.99
66102;HTU21D;52883;51.094;5.880;2023-02-02T09:31:24;8.46;118.99
66102;HTU21D;52883;51.094;5.880;2023-02-02T09:33:50;8.49;118.99
66102;HTU21D;52883;51.094;5.880;2023-02-02T09:36:21;8.50;118.99
66102;HTU21D;52883;51.094;5.880;2023-02-02T09:38:48;8.53;118.99
66102;HTU21D;52883;51.094;5.880;2023-02-02T09:44:40;8.72;118.99
66102;HTU21D;52883;51.094;5.880;2023-02-02T09:52:32;8.81;118.99
66102;HTU21D;52883;51.094;5.880;2023-02-02T09:55:04;8.93;118.99
66102;HTU21D;52883;51.094;5.880;2023-02-02T09:57:43;9.07;118.99
66102;HTU21D;52883;51.094;5.880;2023-02-02T10:00:47;9.18;118.99
66102;HTU21D;52883;51.094;5.880;2023-02-02T10:14:19;9.66;118.99
66102;HTU21D;52883;51.094;5.880;2023-02-02T10:16:53;9.70;118.99
66102;HTU21D;52883;51.094;5.880;2023-02-02T10:19:20;9.70;118.99
66102;HTU21D;52883;51.094;5.880;2023-02-02T10:24:42;9.74;118.99
66102;HTU21D;52883;51.094;5.880;2023-02-02T10:27:14;9.68;118.99
66102;HTU21D;52883;51.094;5.880;2023-02-02T10:29:58;9.69;118.99
66102;HTU21D;52883;51.094;5.880;2023-02-02T10:32:37;9.77;118.99
66102;HTU21D;52883;51.094;5.880;2023-02-02T10:38:33;9.77;118.99
66102;HTU21D;52883;51.094;5.880;2023-02-02T10:41:25;9.69;118.99
66102;HTU21D;52883;51.094;5.880;2023-02-02T10:46:48;9.63;118.99
66102;HTU21D;52883;51.094;5.880;2023-02-02T10:49:31;9.63;118.99
66102;HTU21D;52883;51.094;5.880;2023-02-02T10:52:17;9.60;118.99
66102;HTU21D;52883;51.094;5.880;2023-02-02T10:54:52;9.63;118.99
66102;HTU21D;52883;51.094;5.880;2023-02-02T10:57:31;9.65;118.99
66102;HTU21D;52883;51.094;5.880;2023-02-02T11:00:14;9.65;118.99
66102;HTU21D;52883;51.094;5.880;2023-02-02T11:02:40;9.71;118.99
66102;HTU21D;52883;51.094;5.880;2023-02-02T11:05:14;9.75;118.99
66102;HTU21D;52883;51.094;5.880;2023-02-02T11:08:01;9.79;118.99
66102;HTU21D;52883;51.094;5.880;2023-02-02T11:10:27;9.82;118.99
66102;HTU21D;52883;51.094;5.880;2023-02-02T11:12:54;9.89;118.99
66102;HTU21D;52883;51.094;5.880;2023-02-02T11:15:30;9.91;118.99
66102;HTU21D;52883;51.094;5.880;2023-02-02T11:18:26;9.88;118.99
66102;HTU21D;52883;51.094;5.880;2023-02-02T11:20:52;9.86;118.99
66102;HTU21D;52883;51.094;5.880;2023-02-02T11:23:20;9.86;118.99
66102;HTU21D;52883;51.094;5.880;2023-02-02T11:25:57;9.84;118.99
66102;HTU21D;52883;51.094;5.880;2023-02-02T11:28:25;9.83;118.99
66102;HTU21D;52883;51.094;5.880;2023-02-02T11:30:55;9.82;118.99
66102;HTU21D;52883;51.094;5.880;2023-02-02T11:33:35;9.82;118.99
66102;HTU21D;52883;51.094;5.880;2023-02-02T11:36:19;9.83;118.99
66102;HTU21D;52883;51.094;5.880;2023-02-02T11:38:45;9.83;118.99
66102;HTU21D;52883;51.094;5.880;2023-02-02T11:41:11;9.91;118.99
66102;HTU21D;52883;51.094;5.880;2023-02-02T11:43:53;10.04;118.99
66102;HTU21D;52883;51.094;5.880;2023-02-02T11:46:22;10.12;118.99
66102;HTU21D;52883;51.094;5.880;2023-02-02T11:49:01;10.24;118.99
66102;HTU21D;52883;51.094;5.880;2023-02-02T11:51:29;10.29;118.99
66102;HTU21D;52883;51.094;5.880;2023-02-02T11:54:15;10.40;118.99
66102;HTU21D;52883;51.094;5.880;2023-02-02T11:56:49;10.65;118.99
66102;HTU21D;52883;51.094;5.880;2023-02-02T11:59:36;10.92;118.99
66102;HTU21D;52883;51.094;5.880;2023-02-02T12:04:38;11.20;118.99
66102;HTU21D;52883;51.094;5.880;2023-02-02T12:07:37;11.22;118.99
66102;HTU21D;52883;51.094;5.880;2023-02-02T12:10:21;11.26;118.99
66102;HTU21D;52883;51.094;5.880;2023-02-02T12:23:49;10.96;118.99
66102;HTU21D;52883;51.094;5.880;2023-02-02T12:26:29;10.87;118.99
66102;HTU21D;52883;51.094;5.880;2023-02-02T12:29:22;10.82;118.99
66102;HTU21D;52883;51.094;5.880;2023-02-02T12:32:19;10.77;118.99
66102;HTU21D;52883;51.094;5.880;2023-02-02T12:41:05;10.98;118.99
66102;HTU21D;52883;51.094;5.880;2023-02-02T12:43:50;11.01;118.99
66102;HTU21D;52883;51.094;5.880;2023-02-02T12:46:35;10.97;118.99
66102;HTU21D;52883;51.094;5.880;2023-02-02T12:52:03;10.95;118.99
66102;HTU21D;52883;51.094;5.880;2023-02-02T13:00:40;10.59;118.99
66102;HTU21D;52883;51.094;5.880;2023-02-02T13:08:32;10.57;118.99
66102;HTU21D;52883;51.094;5.880;2023-02-02T13:11:10;10.66;118.99
66102;HTU21D;52883;51.094;5.880;2023-02-02T13:14:07;10.80;118.99
66102;HTU21D;52883;51.094;5.880;2023-02-02T13:16:37;10.93;118.99
66102;HTU21D;52883;51.094;5.880;2023-02-02T13:19:21;11.07;118.99
66102;HTU21D;52883;51.094;5.880;2023-02-02T13:21:50;11.13;118.99
66102;HTU21D;52883;51.094;5.880;2023-02-02T13:24:28;11.20;118.99
66102;HTU21D;52883;51.094;5.880;2023-02-02T13:26:58;11.29;118.99
66102;HTU21D;52883;51.094;5.880;2023-02-02T13:29:41;11.40;118.99
66102;HTU21D;52883;51.094;5.880;2023-02-02T13:37:33;11.84;118.99
66102;HTU21D;52883;51.094;5.880;2023-02-02T13:43:24;12.08;118.99
66102;HTU21D;52883;51.094;5.880;2023-02-02T13:46:14;12.03;118.99
66102;HTU21D;52883;51.094;5.880;2023-02-02T14:00:20;11.55;118.99
66102;HTU21D;52883;51.094;5.880;2023-02-02T14:02:54;11.49;118.99
66102;HTU21D;52883;51.094;5.880;2023-02-02T14:05:30;11.45;118.99
66102;HTU21D;52883;51.094;5.880;2023-02-02T14:08:19;11.39;118.99
66102;HTU21D;52883;51.094;5.880;2023-02-02T14:13:31;11.39;118.99
66102;HTU21D;52883;51.094;5.880;2023-02-02T14:18:59;11.68;118.99
66102;HTU21D;52883;51.094;5.880;2023-02-02T14:26:47;12.05;118.99
66102;HTU21D;52883;51.094;5.880;2023-02-02T14:34:55;11.93;118.99
66102;HTU21D;52883;51.094;5.880;2023-02-02T14:45:45;11.45;118.99
66102;HTU21D;52883;51.094;5.880;2023-02-02T14:48:22;11.36;118.99
66102;HTU21D;52883;51.094;5.880;2023-02-02T14:50:56;11.28;118.99
66102;HTU21D;52883;51.094;5.880;2023-02-02T14:56:06;11.07;118.99
66102;HTU21D;52883;51.094;5.880;2023-02-02T15:06:41;10.96;118.99
66102;HTU21D;52883;51.094;5.880;2023-02-02T15:17:04;10.78;118.99
66102;HTU21D;52883;51.094;5.880;2023-02-02T15:19:41;10.78;118.99
66102;HTU21D;52883;51.094;5.880;2023-02-02T15:22:32;10.75;118.99
66102;HTU21D;52883;51.094;5.880;2023-02-02T15:25:19;10.77;118.99
66102;HTU21D;52883;51.094;5.880;2023-02-02T15:27:56;10.78;118.99
66102;HTU21D;52883;51.094;5.880;2023-02-02T15:30:29;10.72;118.99
66102;HTU21D;52883;51.094;5.880;2023-02-02T15:33:06;10.70;118.99
66102;HTU21D;52883;51.094;5.880;2023-02-02T15:35:34;10.65;118.99
66102;HTU21D;52883;51.094;5.880;2023-02-02T15:38:06;10.62;118.99
66102;HTU21D;52883;51.094;5.880;2023-02-02T15:40:36;10.57;118.99
66102;HTU21D;52883;51.094;5.880;2023-02-02T15:43:05;10.50;118.99
66102;HTU21D;52883;51.094;5.880;2023-02-02T15:45:52;10.43;118.99
66102;HTU21D;52883;51.094;5.880;2023-02-02T15:48:25;10.38;118.99
66102;HTU21D;52883;51.094;5.880;2023-02-02T15:50:56;10.38;118.99
66102;HTU21D;52883;51.094;5.880;2023-02-02T15:53:26;10.33;118.99
66102;HTU21D;52883;51.094;5.880;2023-02-02T15:55:54;10.29;118.99
66102;HTU21D;52883;51.094;5.880;2023-02-02T15:58:28;10.29;118.99
66102;HTU21D;52883;51.094;5.880;2023-02-02T16:00:56;10.28;118.99
66102;HTU21D;52883;51.094;5.880;2023-02-02T16:03:29;10.26;118.99
66102;HTU21D;52883;51.094;5.880;2023-02-02T16:05:57;10.24;118.99
66102;HTU21D;52883;51.094;5.880;2023-02-02T16:08:24;10.22;118.99
66102;HTU21D;52883;51.094;5.880;2023-02-02T16:11:04;10.18;118.99
66102;HTU21D;52883;51.094;5.880;2023-02-02T16:13:30;10.12;118.99
66102;HTU21D;52883;51.094;5.880;2023-02-02T16:16:04;10.04;118.99
66102;HTU21D;52883;51.094;5.880;2023-02-02T16:18:34;9.86;118.99
66102;HTU21D;52883;51.094;5.880;2023-02-02T16:21:08;9.69;118.99
66102;HTU21D;52883;51.094;5.880;2023-02-02T16:23:38;9.57;118.99
66102;HTU21D;52883;51.094;5.880;2023-02-02T16:26:05;9.47;118.99
66102;HTU21D;52883;51.094;5.880;2023-02-02T16:28:32;9.32;118.99
66102;HTU21D;52883;51.094;5.880;2023-02-02T16:31:01;9.21;118.99
66102;HTU21D;52883;51.094;5.880;2023-02-02T16:33:41;9.06;118.99
66102;HTU21D;52883;51.094;5.880;2023-02-02T16:36:27;8.98;118.99
66102;HTU21D;52883;51.094;5.880;2023-02-02T16:38:56;8.90;118.99
66102;HTU21D;52883;51.094;5.880;2023-02-02T16:41:35;8.81;118.99
66102;HTU21D;52883;51.094;5.880;2023-02-02T16:44:26;8.78;118.99
66102;HTU21D;52883;51.094;5.880;2023-02-02T16:46:52;8.75;118.99
66102;HTU21D;52883;51.094;5.880;2023-02-02T16:49:22;8.73;118.99
66102;HTU21D;52883;51.094;5.880;2023-02-02T16:54:33;8.71;118.99
66102;HTU21D;52883;51.094;5.880;2023-02-02T16:57:01;8.71;118.99
66102;HTU21D;52883;51.094;5.880;2023-02-02T16:59:34;8.68;118.99
66102;HTU21D;52883;51.094;5.880;2023-02-02T17:02:26;8.65;118.99
66102;HTU21D;52883;51.094;5.880;2023-02-02T17:05:05;8.66;118.99
66102;HTU21D;52883;51.094;5.880;2023-02-02T17:07:35;8.63;118.99
66102;HTU21D;52883;51.094;5.880;2023-02-02T17:12:44;8.59;118.99
66102;HTU21D;52883;51.094;5.880;2023-02-02T17:17:45;8.56;118.99
66102;HTU21D;52883;51.094;5.880;2023-02-02T17:20:15;8.58;118.99
66102;HTU21D;52883;51.094;5.880;2023-02-02T17:22:46;8.60;118.99
66102;HTU21D;52883;51.094;5.880;2023-02-02T17:25:20;8.59;118.99
66102;HTU21D;52883;51.094;5.880;2023-02-02T17:27:48;8.61;118.99
66102;HTU21D;52883;51.094;5.880;2023-02-02T17:30:18;8.61;118.99
66102;HTU21D;52883;51.094;5.880;2023-02-02T17:32:44;8.59;118.99
66102;HTU21D;52883;51.094;5.880;2023-02-02T17:35:20;8.57;118.99
66102;HTU21D;52883;51.094;5.880;2023-02-02T17:37:47;8.55;118.99
66102;HTU21D;52883;51.094;5.880;2023-02-02T17:40:14;8.45;118.99
66102;HTU21D;52883;51.094;5.880;2023-02-02T17:42:44;8.41;118.99
66102;HTU21D;52883;51.094;5.880;2023-02-02T17:45:34;8.37;118.99
66102;HTU21D;52883;51.094;5.880;2023-02-02T17:48:01;8.33;118.99
66102;HTU21D;52883;51.094;5.880;2023-02-02T17:50:28;8.33;118.99
66102;HTU21D;52883;51.094;5.880;2023-02-02T17:52:54;8.33;118.99
66102;HTU21D;52883;51.094;5.880;2023-02-02T17:55:29;8.34;118.99
66102;HTU21D;52883;51.094;5.880;2023-02-02T17:57:56;8.31;118.99
66102;HTU21D;52883;51.094;5.880;2023-02-02T18:00:25;8.32;118.99
66102;HTU21D;52883;51.094;5.880;2023-02-02T18:03:13;8.29;118.99
66102;HTU21D;52883;51.094;5.880;2023-02-02T18:05:41;8.22;118.99
66102;HTU21D;52883;51.094;5.880;2023-02-02T18:08:09;8.19;118.99
66102;HTU21D;52883;51.094;5.880;2023-02-02T18:10:35;8.16;118.99
66102;HTU21D;52883;51.094;5.880;2023-02-02T18:13:03;8.11;118.99
66102;HTU21D;52883;51.094;5.880;2023-02-02T18:15:28;8.08;118.99
66102;HTU21D;52883;51.094;5.880;2023-02-02T18:17:55;8.09;118.99